Time;durP1;ratioP1;P1;durP2;ratioP2;P2;SDS_P1;SDS_P2;PMS_P1;PMS_P2;Temp;Humidity;BMP_temperature;BMP_pressure;BME280_temperature;BME280_humidity;BME280_pressure;Samples;Min_cycle;Max_cycle;Signal;HPM_P1;HPM_P2
2023/06/22 00:00:27;;;;;;;36.20;22.08;;;19.40;99.90;;;;;;5020958;28;20022;-71
2023/06/22 00:02:53;;;;;;;31.33;21.58;;;19.40;99.90;;;;;;5019876;28;20022;-71
2023/06/22 00:05:18;;;;;;;38.38;22.30;;;19.30;99.90;;;;;;5030012;28;20137;-72
2023/06/22 00:07:44;;;;;;;34.28;22.23;;;19.30;99.90;;;;;;5028813;28;20087;-72
2023/06/22 00:10:10;;;;;;;35.08;22.45;;;19.30;99.90;;;;;;5029221;28;20021;-71
2023/06/22 00:12:35;;;;;;;32.17;21.65;;;19.30;99.90;;;;;;5027114;28;20111;-72
2023/06/22 00:15:01;;;;;;;34.40;22.55;;;19.20;99.90;;;;;;5015722;28;20101;-72
2023/06/22 00:17:26;;;;;;;34.80;22.10;;;19.20;99.90;;;;;;5026915;28;20464;-72
2023/06/22 00:19:53;;;;;;;32.22;22.58;;;19.20;99.90;;;;;;5032315;28;20025;-72
2023/06/22 00:22:27;;;;;;;34.80;22.27;;;19.10;99.90;;;;;;5033832;28;20021;-71
2023/06/22 00:24:54;;;;;;;38.03;24.17;;;19.10;99.90;;;;;;5028548;28;20022;-71
2023/06/22 00:27:19;;;;;;;41.45;23.58;;;19.10;99.90;;;;;;5026628;28;20363;-72
2023/06/22 00:29:45;;;;;;;36.90;23.00;;;19.00;99.90;;;;;;5029944;28;20128;-72
2023/06/22 00:32:11;;;;;;;36.30;23.55;;;19.10;99.90;;;;;;5025004;28;20030;-72
2023/06/22 00:34:36;;;;;;;36.55;22.08;;;19.00;99.90;;;;;;5025773;28;20025;-72
2023/06/22 00:37:02;;;;;;;37.85;24.27;;;19.10;99.90;;;;;;5019910;28;20026;-72
2023/06/22 00:39:27;;;;;;;35.38;23.33;;;19.10;99.90;;;;;;5026816;28;20045;-72
2023/06/22 00:41:53;;;;;;;38.85;24.48;;;19.00;99.90;;;;;;5018729;28;20029;-72
2023/06/22 00:44:19;;;;;;;38.60;24.23;;;19.00;99.90;;;;;;5015326;28;20101;-72
2023/06/22 00:46:44;;;;;;;40.08;24.10;;;19.00;99.90;;;;;;5017603;28;20061;-72
2023/06/22 00:49:10;;;;;;;39.67;23.77;;;19.00;99.90;;;;;;5020583;28;20026;-72
2023/06/22 00:51:37;;;;;;;38.67;23.63;;;19.00;99.90;;;;;;5028277;28;20096;-71
2023/06/22 00:54:05;;;;;;;40.33;23.83;;;19.00;99.90;;;;;;5029612;28;20018;-72
2023/06/22 00:56:31;;;;;;;36.15;23.25;;;18.90;99.90;;;;;;5021562;28;20469;-72
2023/06/22 00:58:59;;;;;;;38.08;23.50;;;18.90;99.90;;;;;;5019600;28;20025;-71
2023/06/22 01:01:24;;;;;;;38.90;24.45;;;18.90;99.90;;;;;;5014876;28;20083;-72
2023/06/22 01:03:51;;;;;;;37.70;23.45;;;18.90;99.90;;;;;;5031193;28;20427;-72
2023/06/22 01:06:28;;;;;;;38.53;23.23;;;18.90;99.90;;;;;;5024466;28;20026;-72
2023/06/22 01:09:05;;;;;;;33.50;22.13;;;18.80;99.90;;;;;;5019262;28;20643;-72
2023/06/22 01:11:42;;;;;;;38.15;21.98;;;18.80;99.90;;;;;;5023881;28;20044;-72
2023/06/22 01:14:15;;;;;;;33.60;22.85;;;18.80;99.90;;;;;;5023936;28;20116;-72
2023/06/22 01:16:43;;;;;;;36.00;23.30;;;18.80;99.90;;;;;;5021814;28;20064;-72
2023/06/22 01:19:35;;;;;;;34.40;22.50;;;18.70;99.90;;;;;;5030536;28;20040;-72
2023/06/22 01:22:03;;;;;;;37.10;21.67;;;18.70;99.90;;;;;;5013125;28;20022;-72
2023/06/22 01:24:45;;;;;;;39.42;22.00;;;18.70;99.90;;;;;;5025132;28;20044;-72
2023/06/22 01:27:28;;;;;;;31.90;20.60;;;18.70;99.90;;;;;;5022346;28;20025;-72
2023/06/22 01:30:04;;;;;;;33.75;22.60;;;18.60;99.90;;;;;;5020150;28;20029;-72
2023/06/22 01:32:32;;;;;;;35.53;21.67;;;18.60;99.90;;;;;;5029136;28;20067;-72
2023/06/22 01:35:00;;;;;;;35.90;22.70;;;18.50;99.90;;;;;;5031198;28;20087;-72
2023/06/22 01:37:27;;;;;;;35.53;21.77;;;18.60;99.90;;;;;;5027401;28;20060;-71
2023/06/22 01:39:55;;;;;;;34.60;22.67;;;18.50;99.90;;;;;;5024914;28;20381;-71
2023/06/22 01:42:21;;;;;;;37.35;23.45;;;18.50;99.90;;;;;;5031364;28;20013;-72
2023/06/22 01:44:47;;;;;;;35.92;23.00;;;18.50;99.90;;;;;;5028899;28;20393;-72
2023/06/22 01:47:13;;;;;;;39.25;24.48;;;18.50;99.90;;;;;;5028834;28;20026;-71
2023/06/22 01:49:40;;;;;;;41.35;24.80;;;18.40;99.90;;;;;;5031193;28;20038;-71
2023/06/22 01:52:07;;;;;;;42.83;25.25;;;18.40;99.90;;;;;;5030215;28;20068;-72
2023/06/22 01:54:33;;;;;;;42.08;26.00;;;18.40;99.90;;;;;;5020049;28;20026;-72
2023/06/22 01:56:59;;;;;;;44.05;25.88;;;18.40;99.90;;;;;;5030580;28;20040;-72
2023/06/22 01:59:34;;;;;;;43.95;25.85;;;18.40;99.90;;;;;;5026939;28;20033;-72
2023/06/22 02:02:09;;;;;;;45.15;26.30;;;18.40;99.90;;;;;;5021279;28;20116;-72
2023/06/22 02:04:39;;;;;;;41.83;25.50;;;18.40;99.90;;;;;;5024210;28;20056;-71
2023/06/22 02:07:11;;;;;;;42.88;25.85;;;18.40;99.90;;;;;;5030737;28;20098;-71
2023/06/22 02:09:41;;;;;;;44.58;27.08;;;18.40;99.90;;;;;;5022272;28;20033;-72
2023/06/22 02:12:10;;;;;;;40.70;25.52;;;18.40;99.90;;;;;;5025596;28;20037;-72
2023/06/22 02:14:37;;;;;;;40.58;26.20;;;18.40;99.90;;;;;;5030092;28;20029;-72
2023/06/22 02:17:04;;;;;;;44.33;26.48;;;18.40;99.90;;;;;;5021891;28;20156;-72
2023/06/22 02:19:33;;;;;;;42.47;26.05;;;18.40;99.90;;;;;;5030854;28;20064;-72
2023/06/22 02:21:58;;;;;;;43.92;25.42;;;18.30;99.90;;;;;;5023218;28;20427;-71
2023/06/22 02:24:24;;;;;;;43.10;25.88;;;18.30;99.90;;;;;;5026556;28;20037;-71
2023/06/22 02:26:50;;;;;;;42.25;25.95;;;18.30;99.90;;;;;;5024280;28;20033;-71
2023/06/22 02:29:15;;;;;;;43.20;25.27;;;18.30;99.90;;;;;;5019386;28;20381;-72
2023/06/22 02:31:41;;;;;;;41.42;25.98;;;18.30;99.90;;;;;;5029045;28;20037;-71
2023/06/22 02:34:07;;;;;;;43.90;27.30;;;18.30;99.90;;;;;;5029110;28;20041;-72
2023/06/22 02:36:33;;;;;;;44.30;26.60;;;18.20;99.90;;;;;;5011843;28;20025;-72
2023/06/22 02:39:01;;;;;;;45.22;27.10;;;18.20;99.90;;;;;;5015314;28;20028;-71
2023/06/22 02:41:27;;;;;;;47.25;27.65;;;18.20;99.90;;;;;;5028143;28;20022;-72
2023/06/22 02:43:52;;;;;;;48.25;28.60;;;18.20;99.90;;;;;;5023196;28;20021;-71
2023/06/22 02:46:18;;;;;;;47.38;28.67;;;18.20;99.90;;;;;;5022190;28;20491;-71
2023/06/22 02:48:44;;;;;;;45.63;27.65;;;18.20;99.90;;;;;;5014606;28;20430;-71
2023/06/22 02:51:09;;;;;;;44.20;27.35;;;18.20;99.90;;;;;;5016874;28;20480;-72
2023/06/22 02:53:35;;;;;;;45.15;27.80;;;18.20;99.90;;;;;;5015408;28;20101;-71
2023/06/22 02:56:05;;;;;;;49.05;29.48;;;18.20;99.90;;;;;;5017179;28;20036;-71
2023/06/22 02:58:38;;;;;;;48.63;28.00;;;18.10;99.90;;;;;;5020732;28;20029;-72
2023/06/22 03:01:05;;;;;;;44.13;27.92;;;18.00;99.90;;;;;;5026909;28;20099;-71
2023/06/22 03:03:30;;;;;;;47.70;29.70;;;18.00;99.90;;;;;;5024420;28;20037;-71
2023/06/22 03:05:56;;;;;;;49.17;30.25;;;18.00;99.90;;;;;;5018821;28;20017;-72
2023/06/22 03:08:22;;;;;;;45.08;29.88;;;18.00;99.90;;;;;;5027052;28;20038;-71
2023/06/22 03:10:47;;;;;;;50.08;30.25;;;17.90;99.90;;;;;;5018194;28;20460;-71
2023/06/22 03:13:13;;;;;;;50.13;29.92;;;17.90;99.90;;;;;;5018525;28;20493;-71
2023/06/22 03:15:38;;;;;;;49.05;28.95;;;18.00;99.90;;;;;;5017723;28;20668;-72
2023/06/22 03:18:04;;;;;;;51.35;32.25;;;18.00;99.90;;;;;;5029179;28;20076;-71
2023/06/22 03:20:33;;;;;;;45.72;28.73;;;18.00;99.90;;;;;;5030803;28;20030;-71
2023/06/22 03:22:59;;;;;;;52.63;30.65;;;18.00;99.90;;;;;;5028393;28;20396;-72
2023/06/22 03:25:25;;;;;;;50.72;29.45;;;18.00;99.90;;;;;;5018214;28;20025;-71
2023/06/22 03:27:51;;;;;;;55.97;33.05;;;18.00;99.90;;;;;;5025122;28;20480;-71
2023/06/22 03:30:16;;;;;;;53.90;30.55;;;18.00;99.90;;;;;;5020820;28;20544;-71
2023/06/22 03:32:43;;;;;;;53.60;30.98;;;18.00;99.90;;;;;;5020750;28;20021;-72
2023/06/22 03:35:09;;;;;;;53.15;31.25;;;18.00;99.90;;;;;;5024117;28;20018;-72
2023/06/22 03:37:34;;;;;;;57.42;32.17;;;18.00;99.90;;;;;;5022959;28;20377;-71
2023/06/22 03:40:00;;;;;;;72.88;45.45;;;18.00;99.90;;;;;;5029648;28;20028;-71
2023/06/22 03:42:26;;;;;;;58.35;33.70;;;18.00;99.90;;;;;;5033491;28;20033;-71
2023/06/22 03:44:51;;;;;;;53.50;31.65;;;18.00;99.90;;;;;;5016328;28;20029;-71
2023/06/22 03:47:18;;;;;;;51.13;30.33;;;18.00;99.90;;;;;;5029210;28;20038;-71
2023/06/22 03:49:43;;;;;;;48.53;30.10;;;18.00;99.90;;;;;;5021151;28;20108;-71
2023/06/22 03:52:10;;;;;;;49.92;30.55;;;18.00;99.90;;;;;;5025694;28;20508;-71
2023/06/22 03:54:36;;;;;;;50.53;29.77;;;17.90;99.90;;;;;;5025238;28;20006;-71
2023/06/22 03:57:02;;;;;;;52.55;31.00;;;17.90;99.90;;;;;;5028044;28;20029;-71
2023/06/22 03:59:28;;;;;;;53.90;31.67;;;17.90;99.90;;;;;;5025735;28;20036;-71
2023/06/22 04:01:53;;;;;;;52.60;31.92;;;17.90;99.90;;;;;;5031564;28;20022;-71
2023/06/22 04:04:19;;;;;;;51.63;31.38;;;17.90;99.90;;;;;;5028275;28;20407;-71
2023/06/22 04:06:44;;;;;;;53.33;32.45;;;18.00;99.90;;;;;;5027937;28;20025;-71
2023/06/22 04:09:10;;;;;;;56.85;33.67;;;18.00;99.90;;;;;;5021699;28;20021;-71
2023/06/22 04:11:36;;;;;;;56.65;33.20;;;18.00;99.90;;;;;;5030746;28;20036;-71
2023/06/22 04:14:01;;;;;;;53.28;32.75;;;18.00;99.90;;;;;;5028126;28;20057;-71
2023/06/22 04:16:27;;;;;;;55.70;34.03;;;18.00;99.90;;;;;;5026538;28;20053;-72
2023/06/22 04:18:52;;;;;;;57.53;34.55;;;18.00;99.90;;;;;;5030026;28;20087;-71
2023/06/22 04:21:19;;;;;;;52.00;32.53;;;18.00;99.90;;;;;;5021605;28;20037;-71
2023/06/22 04:23:45;;;;;;;58.20;35.25;;;18.10;99.90;;;;;;5032835;28;20562;-71
2023/06/22 04:26:12;;;;;;;59.65;35.58;;;18.10;99.90;;;;;;5024056;28;20034;-71
2023/06/22 04:28:37;;;;;;;60.47;34.58;;;18.10;99.90;;;;;;5025925;28;20037;-71
2023/06/22 04:31:03;;;;;;;57.67;35.33;;;18.10;99.90;;;;;;5027298;28;20026;-71
2023/06/22 04:33:29;;;;;;;60.17;35.78;;;18.10;99.90;;;;;;5031206;28;20388;-71
2023/06/22 04:35:58;;;;;;;58.00;34.60;;;18.10;99.90;;;;;;5024020;28;20040;-71
2023/06/22 04:38:24;;;;;;;62.40;34.80;;;18.00;99.90;;;;;;5020657;28;20551;-71
2023/06/22 04:40:50;;;;;;;59.60;35.88;;;18.00;99.90;;;;;;5030578;28;20380;-71
2023/06/22 04:43:16;;;;;;;62.58;35.83;;;18.10;99.90;;;;;;5018609;28;20424;-71
2023/06/22 04:45:41;;;;;;;57.90;34.67;;;18.10;99.90;;;;;;5032116;28;20049;-71
2023/06/22 04:48:09;;;;;;;53.60;32.35;;;18.20;99.90;;;;;;5019003;28;20116;-71
2023/06/22 04:50:38;;;;;;;59.78;35.67;;;18.30;99.90;;;;;;5032966;28;20036;-71
2023/06/22 04:53:05;;;;;;;56.22;33.08;;;18.40;99.90;;;;;;5031752;28;20064;-71
2023/06/22 04:55:31;;;;;;;55.38;33.30;;;18.40;99.90;;;;;;5016286;28;20022;-71
2023/06/22 04:58:04;;;;;;;54.42;33.00;;;18.50;99.90;;;;;;5020735;28;20030;-71
2023/06/22 05:00:31;;;;;;;49.83;30.80;;;18.60;99.90;;;;;;5032894;28;20103;-71
2023/06/22 05:02:57;;;;;;;58.00;34.72;;;18.70;99.90;;;;;;5025380;28;20049;-72
2023/06/22 05:05:24;;;;;;;49.90;31.67;;;18.70;99.90;;;;;;5025704;28;20583;-71
2023/06/22 05:07:52;;;;;;;50.70;30.15;;;18.70;99.90;;;;;;5032266;28;20021;-70
2023/06/22 05:10:19;;;;;;;51.30;31.60;;;18.70;99.90;;;;;;5027862;28;20104;-71
2023/06/22 05:12:47;;;;;;;56.55;31.75;;;18.80;99.90;;;;;;5031170;28;20024;-71
2023/06/22 05:15:12;;;;;;;52.00;32.00;;;18.90;99.90;;;;;;5019874;28;20033;-71
2023/06/22 05:17:42;;;;;;;50.13;29.65;;;18.90;99.90;;;;;;5018997;28;20067;-71
2023/06/22 05:20:12;;;;;;;52.65;31.65;;;19.00;99.90;;;;;;5031461;28;20056;-71
2023/06/22 05:22:38;;;;;;;43.72;27.75;;;19.10;99.90;;;;;;5019974;28;20029;-72
2023/06/22 05:25:07;;;;;;;44.05;28.42;;;19.10;99.90;;;;;;5032331;28;20105;-71
2023/06/22 05:27:33;;;;;;;47.33;28.90;;;19.20;99.90;;;;;;5016120;28;20029;-71
2023/06/22 05:29:58;;;;;;;46.65;28.80;;;19.30;99.90;;;;;;5015778;28;20041;-71
2023/06/22 05:32:24;;;;;;;43.80;27.90;;;19.30;99.90;;;;;;5012113;28;20030;-71
2023/06/22 05:34:50;;;;;;;43.78;27.48;;;19.40;99.90;;;;;;5024079;28;20022;-71
2023/06/22 05:37:15;;;;;;;43.63;26.38;;;19.40;99.90;;;;;;5026039;28;20033;-71
2023/06/22 05:39:41;;;;;;;43.05;27.35;;;19.40;99.90;;;;;;5024315;28;20044;-71
2023/06/22 05:42:07;;;;;;;40.08;26.45;;;19.50;99.90;;;;;;5030662;28;20071;-71
2023/06/22 05:44:33;;;;;;;41.85;26.63;;;19.50;99.90;;;;;;5019402;28;20033;-71
2023/06/22 05:46:59;;;;;;;42.88;26.13;;;19.60;99.90;;;;;;5031601;28;20045;-71
2023/06/22 05:49:29;;;;;;;44.35;25.25;;;19.60;99.90;;;;;;5021523;28;20030;-71
2023/06/22 05:51:56;;;;;;;36.38;23.67;;;19.60;99.90;;;;;;5026437;28;20018;-71
2023/06/22 05:54:21;;;;;;;36.53;23.08;;;19.70;99.90;;;;;;5016098;28;20025;-71
2023/06/22 05:56:47;;;;;;;34.38;22.20;;;19.70;99.90;;;;;;5024449;28;20462;-71
2023/06/22 05:59:13;;;;;;;33.85;21.23;;;19.70;99.90;;;;;;5031826;28;20017;-71
2023/06/22 06:01:39;;;;;;;36.50;21.42;;;19.70;99.90;;;;;;5024690;28;20029;-71
2023/06/22 06:04:07;;;;;;;32.55;20.38;;;19.70;99.90;;;;;;5016434;28;20014;-71
2023/06/22 06:06:34;;;;;;;29.33;19.00;;;19.80;99.90;;;;;;5031557;28;20024;-71
2023/06/22 06:09:00;;;;;;;30.17;18.33;;;19.80;99.90;;;;;;5029996;28;20052;-71
2023/06/22 06:11:26;;;;;;;32.42;20.45;;;19.90;99.90;;;;;;5030678;28;20025;-71
2023/06/22 06:13:52;;;;;;;27.52;17.05;;;19.90;99.90;;;;;;5031611;28;20056;-71
2023/06/22 06:16:17;;;;;;;31.52;19.45;;;20.00;99.90;;;;;;5020992;28;20018;-71
2023/06/22 06:18:43;;;;;;;32.25;20.38;;;20.00;99.90;;;;;;5027492;28;20531;-71
2023/06/22 06:21:08;;;;;;;33.90;21.27;;;20.10;99.90;;;;;;5016322;28;20037;-71
2023/06/22 06:23:34;;;;;;;34.42;21.05;;;20.20;99.90;;;;;;5025650;28;20524;-71
2023/06/22 06:26:01;;;;;;;36.97;22.42;;;20.20;99.90;;;;;;5018183;28;20044;-71
2023/06/22 06:28:27;;;;;;;35.22;22.33;;;20.30;99.90;;;;;;5025057;28;20074;-71
2023/06/22 06:30:52;;;;;;;37.78;22.60;;;20.30;99.90;;;;;;5027179;28;20834;-71
2023/06/22 06:33:18;;;;;;;35.47;21.02;;;20.30;99.90;;;;;;5027620;28;20104;-71
2023/06/22 06:35:44;;;;;;;31.63;21.63;;;20.40;99.90;;;;;;5028301;28;20083;-71
2023/06/22 06:38:10;;;;;;;35.38;20.73;;;20.40;99.90;;;;;;5013745;28;20025;-71
2023/06/22 06:40:36;;;;;;;32.97;19.80;;;20.40;99.90;;;;;;5025241;28;20030;-71
2023/06/22 06:43:01;;;;;;;32.90;21.38;;;20.40;99.90;;;;;;5030346;28;20381;-71
2023/06/22 06:45:28;;;;;;;37.30;20.73;;;20.50;99.90;;;;;;5031254;28;20096;-71
2023/06/22 06:47:54;;;;;;;31.27;20.13;;;20.60;99.90;;;;;;5018914;28;20080;-71
2023/06/22 06:50:20;;;;;;;28.35;18.88;;;20.60;99.90;;;;;;5018335;28;20489;-71
2023/06/22 06:52:45;;;;;;;27.02;18.48;;;20.70;99.90;;;;;;5031862;28;20062;-72
2023/06/22 06:55:14;;;;;;;24.77;17.35;;;20.80;99.90;;;;;;5030649;28;20022;-71
2023/06/22 06:57:41;;;;;;;25.13;16.55;;;20.80;99.90;;;;;;5032383;28;20045;-71
2023/06/22 07:00:13;;;;;;;28.70;17.90;;;20.90;99.90;;;;;;5025373;28;20018;-71
2023/06/22 07:02:40;;;;;;;22.75;15.57;;;21.00;99.90;;;;;;5028364;28;20029;-71
2023/06/22 07:05:06;;;;;;;26.30;16.75;;;21.10;99.90;;;;;;5025715;28;20080;-71
2023/06/22 07:07:32;;;;;;;23.52;15.18;;;21.30;99.90;;;;;;5021797;28;20354;-71
2023/06/22 07:09:58;;;;;;;23.23;14.25;;;21.40;99.90;;;;;;5034757;28;20048;-71
2023/06/22 07:12:23;;;;;;;18.55;13.07;;;21.50;99.90;;;;;;5031583;28;20021;-72
2023/06/22 07:14:50;;;;;;;21.23;13.82;;;21.70;99.90;;;;;;5034291;28;20026;-72
2023/06/22 07:17:15;;;;;;;18.02;12.10;;;21.80;99.90;;;;;;5017608;28;20018;-72
2023/06/22 07:19:42;;;;;;;17.27;11.88;;;21.90;99.90;;;;;;5016600;28;20032;-72
2023/06/22 07:22:07;;;;;;;19.17;12.30;;;22.10;99.90;;;;;;5031012;28;20014;-72
2023/06/22 07:24:33;;;;;;;16.60;12.65;;;22.20;99.90;;;;;;5026956;28;20712;-72
2023/06/22 07:26:59;;;;;;;17.35;10.48;;;22.40;99.90;;;;;;5032776;28;20067;-71
2023/06/22 07:29:26;;;;;;;13.23;9.10;;;22.50;99.90;;;;;;5026725;28;20049;-71
2023/06/22 07:31:52;;;;;;;15.15;9.32;;;22.50;99.90;;;;;;5034695;28;20022;-71
2023/06/22 07:34:18;;;;;;;15.30;9.43;;;22.60;99.90;;;;;;5028556;28;20087;-72
2023/06/22 07:36:44;;;;;;;12.85;9.63;;;22.80;99.90;;;;;;5021215;28;20353;-71
2023/06/22 07:39:10;;;;;;;15.85;10.32;;;22.90;99.90;;;;;;5028105;28;20030;-71
2023/06/22 07:41:35;;;;;;;13.52;8.27;;;23.00;99.90;;;;;;5033944;28;20020;-71
2023/06/22 07:44:03;;;;;;;10.77;7.90;;;23.10;99.90;;;;;;5023534;28;20387;-71
2023/06/22 07:46:30;;;;;;;9.98;7.68;;;23.30;99.90;;;;;;5027791;28;20050;-71
2023/06/22 07:48:56;;;;;;;12.23;7.40;;;23.40;99.90;;;;;;5025894;28;20033;-71
2023/06/22 07:51:22;;;;;;;9.93;6.72;;;23.50;99.90;;;;;;5032803;28;20029;-71
2023/06/22 07:53:47;;;;;;;8.55;6.50;;;23.60;99.90;;;;;;5021818;28;20021;-71
2023/06/22 07:56:18;;;;;;;9.95;6.70;;;23.70;99.90;;;;;;5025711;28;20380;-71
2023/06/22 07:58:47;;;;;;;11.30;7.18;;;23.80;99.90;;;;;;5034442;28;20040;-71
2023/06/22 08:01:14;;;;;;;11.57;6.13;;;24.00;99.90;;;;;;5026537;28;20037;-71
2023/06/22 08:03:40;;;;;;;13.35;7.38;;;24.20;99.90;;;;;;5032737;28;20010;-71
2023/06/22 08:06:08;;;;;;;12.82;6.55;;;24.30;99.90;;;;;;5032664;28;20558;-72
2023/06/22 08:08:35;;;;;;;12.45;5.57;;;24.40;99.90;;;;;;5033725;28;20057;-71
2023/06/22 08:11:00;;;;;;;9.57;6.25;;;24.60;99.90;;;;;;5033702;28;20030;-71
2023/06/22 08:13:26;;;;;;;10.05;6.13;;;24.70;99.90;;;;;;5032339;28;20022;-72
2023/06/22 08:15:52;;;;;;;11.05;6.00;;;24.80;99.90;;;;;;5033951;28;20014;-71
2023/06/22 08:18:17;;;;;;;6.65;5.43;;;24.90;99.90;;;;;;5033988;28;20125;-71
2023/06/22 08:20:43;;;;;;;4.63;3.25;;;24.90;99.90;;;;;;5018452;28;20480;-71
2023/06/22 08:23:08;;;;;;;7.80;3.72;;;25.00;99.90;;;;;;5033439;28;20025;-71
2023/06/22 08:25:35;;;;;;;5.57;3.88;;;25.10;99.90;;;;;;5032410;28;20412;-71
2023/06/22 08:28:02;;;;;;;5.35;3.97;;;25.20;99.90;;;;;;5022514;28;20452;-71
2023/06/22 08:30:27;;;;;;;5.90;3.75;;;25.20;99.90;;;;;;5025407;28;20025;-71
2023/06/22 08:32:55;;;;;;;5.85;3.90;;;25.40;99.90;;;;;;5028137;28;20025;-71
2023/06/22 08:35:22;;;;;;;4.90;3.70;;;25.50;99.80;;;;;;5033788;28;20463;-71
2023/06/22 08:37:51;;;;;;;4.90;3.38;;;25.60;99.00;;;;;;5029148;28;20028;-72
2023/06/22 08:40:19;;;;;;;4.53;2.95;;;25.60;98.20;;;;;;5031056;28;20017;-71
2023/06/22 08:42:45;;;;;;;4.72;3.10;;;25.60;97.20;;;;;;5032849;28;20029;-71
2023/06/22 08:45:11;;;;;;;5.30;2.70;;;25.70;96.80;;;;;;5020432;28;20042;-71
2023/06/22 08:47:37;;;;;;;3.85;2.53;;;25.80;95.90;;;;;;5021643;28;20026;-71
2023/06/22 08:50:03;;;;;;;4.75;2.70;;;25.80;95.50;;;;;;5016849;28;20743;-72
2023/06/22 08:52:29;;;;;;;3.92;2.72;;;25.90;94.90;;;;;;5026773;28;20036;-72
2023/06/22 08:54:55;;;;;;;7.65;3.53;;;26.00;94.70;;;;;;5032963;28;20017;-71
2023/06/22 08:57:21;;;;;;;3.78;3.00;;;26.20;94.40;;;;;;5033233;28;20033;-71
2023/06/22 08:59:47;;;;;;;8.48;3.53;;;26.40;93.60;;;;;;5027775;28;20021;-71
2023/06/22 09:02:12;;;;;;;5.63;3.58;;;26.40;93.30;;;;;;5026361;28;20024;-71
2023/06/22 09:04:38;;;;;;;6.07;3.70;;;26.50;93.30;;;;;;5025625;28;20095;-72
2023/06/22 09:07:04;;;;;;;7.22;5.30;;;26.60;93.10;;;;;;5028371;28;20022;-72
2023/06/22 09:09:30;;;;;;;8.05;5.40;;;26.80;92.90;;;;;;5023366;28;20053;-71
2023/06/22 09:11:55;;;;;;;6.63;5.15;;;26.90;92.80;;;;;;5026812;28;20056;-71
2023/06/22 09:14:21;;;;;;;6.95;5.07;;;27.00;92.80;;;;;;5023390;28;20473;-72
2023/06/22 09:16:46;;;;;;;9.25;5.75;;;27.20;92.90;;;;;;5025710;28;20104;-72
2023/06/22 09:19:12;;;;;;;10.70;6.28;;;27.30;92.70;;;;;;5013339;28;20018;-72
2023/06/22 09:21:38;;;;;;;9.52;6.28;;;27.40;92.50;;;;;;5025706;28;20022;-72
2023/06/22 09:24:04;;;;;;;14.00;7.03;;;27.40;92.00;;;;;;5015101;28;20052;-72
2023/06/22 09:26:29;;;;;;;11.07;7.78;;;27.50;92.10;;;;;;5016573;28;20508;-72
2023/06/22 09:28:55;;;;;;;9.43;6.95;;;27.50;91.80;;;;;;5020637;28;20022;-71
2023/06/22 09:31:25;;;;;;;13.35;9.70;;;27.50;90.90;;;;;;5027228;28;20022;-71
2023/06/22 09:33:52;;;;;;;15.18;9.07;;;27.40;91.20;;;;;;5032861;28;20017;-72
2023/06/22 09:36:18;;;;;;;14.73;9.07;;;27.30;91.90;;;;;;5020674;28;20018;-72
2023/06/22 09:38:43;;;;;;;9.75;6.50;;;27.20;92.00;;;;;;5029169;28;20479;-72
2023/06/22 09:41:09;;;;;;;8.20;4.28;;;27.10;92.10;;;;;;5019701;28;20030;-72
2023/06/22 09:43:36;;;;;;;12.07;8.35;;;27.00;90.80;;;;;;5032581;28;20033;-72
2023/06/22 09:46:02;;;;;;;12.05;7.60;;;27.10;90.90;;;;;;5019927;28;20038;-72
2023/06/22 09:48:29;;;;;;;9.57;6.47;;;27.00;91.40;;;;;;5032079;28;20033;-72
2023/06/22 09:50:54;;;;;;;11.40;6.70;;;27.00;91.50;;;;;;5032167;28;20022;-71
2023/06/22 09:53:21;;;;;;;9.93;6.95;;;27.00;91.30;;;;;;5022985;28;20050;-71
2023/06/22 09:55:47;;;;;;;6.25;4.13;;;27.00;91.40;;;;;;5031911;28;20029;-71
2023/06/22 09:58:12;;;;;;;8.52;4.18;;;27.00;90.20;;;;;;5030767;28;20372;-72
2023/06/22 10:00:38;;;;;;;9.80;6.30;;;26.90;87.80;;;;;;5025694;28;20026;-71
2023/06/22 10:03:04;;;;;;;12.15;7.82;;;26.90;89.20;;;;;;5021768;28;20449;-72
2023/06/22 10:05:29;;;;;;;12.90;7.85;;;26.90;90.20;;;;;;5031926;28;20092;-72
2023/06/22 10:07:55;;;;;;;11.57;6.63;;;27.00;90.50;;;;;;5028398;28;20108;-72
2023/06/22 10:10:20;;;;;;;9.65;7.00;;;26.90;90.50;;;;;;5029260;28;20018;-72
2023/06/22 10:12:48;;;;;;;9.70;6.18;;;26.90;90.50;;;;;;5032090;28;20453;-71
2023/06/22 10:15:15;;;;;;;7.70;4.78;;;27.00;90.40;;;;;;5030690;28;20463;-71
2023/06/22 10:17:40;;;;;;;10.05;4.97;;;26.90;89.60;;;;;;5032539;28;20022;-71
2023/06/22 10:20:18;;;;;;;8.38;5.88;;;26.90;88.90;;;;;;5018327;28;20026;-71
2023/06/22 10:22:45;;;;;;;9.30;6.95;;;27.00;88.70;;;;;;5014758;28;20057;-71
2023/06/22 10:25:12;;;;;;;10.52;7.82;;;27.00;89.40;;;;;;5018716;28;20113;-71
2023/06/22 10:27:41;;;;;;;11.80;7.95;;;27.00;89.80;;;;;;5032091;28;20021;-71
2023/06/22 10:30:14;;;;;;;10.00;6.90;;;27.00;90.10;;;;;;5023842;28;20025;-71
2023/06/22 10:32:42;;;;;;;10.07;6.93;;;27.00;90.60;;;;;;5025066;28;20075;-71
2023/06/22 10:35:10;;;;;;;10.23;6.22;;;27.00;89.80;;;;;;5025991;28;20424;-71
2023/06/22 10:37:36;;;;;;;14.43;7.70;;;26.90;89.50;;;;;;5027831;28;20038;-71
2023/06/22 10:40:03;;;;;;;9.73;6.82;;;26.80;89.30;;;;;;5021195;28;20060;-75
2023/06/22 10:42:29;;;;;;;12.25;7.72;;;26.80;89.60;;;;;;5023269;28;20105;-71
2023/06/22 10:44:54;;;;;;;9.25;6.55;;;26.80;89.90;;;;;;5030885;28;20097;-71
2023/06/22 10:47:20;;;;;;;14.43;7.38;;;26.80;90.20;;;;;;5027693;28;20026;-71
2023/06/22 10:49:45;;;;;;;12.63;7.05;;;26.80;90.20;;;;;;5027345;28;20029;-71
2023/06/22 10:52:11;;;;;;;10.50;7.07;;;26.80;90.30;;;;;;5025098;28;20014;-71
2023/06/22 10:54:38;;;;;;;10.93;7.72;;;26.70;90.20;;;;;;5034257;28;20048;-71
2023/06/22 10:57:04;;;;;;;12.73;7.90;;;26.70;90.00;;;;;;5027548;28;20073;-71
2023/06/22 10:59:30;;;;;;;10.00;7.85;;;26.60;90.00;;;;;;5032747;28;20044;-71
2023/06/22 11:01:56;;;;;;;12.35;9.63;;;26.60;90.20;;;;;;5033961;28;20024;-70
2023/06/22 11:04:22;;;;;;;13.32;8.57;;;26.50;90.90;;;;;;5028658;28;20057;-71
2023/06/22 11:06:49;;;;;;;13.40;8.80;;;26.50;91.00;;;;;;5037800;28;20030;-71
2023/06/22 11:09:20;;;;;;;12.15;9.65;;;26.60;91.30;;;;;;5023364;28;20025;-71
2023/06/22 11:11:50;;;;;;;14.63;11.20;;;26.60;91.60;;;;;;5033264;28;20022;-71
2023/06/22 11:14:16;;;;;;;16.33;8.35;;;26.70;91.90;;;;;;5032146;28;20026;-71
2023/06/22 11:16:42;;;;;;;12.13;8.00;;;26.70;91.70;;;;;;5031602;28;20017;-71
2023/06/22 11:19:07;;;;;;;13.23;8.35;;;26.70;91.40;;;;;;5018643;28;20498;-71
2023/06/22 11:21:33;;;;;;;11.75;8.73;;;26.70;91.00;;;;;;5018944;28;20021;-71
2023/06/22 11:23:59;;;;;;;13.48;10.65;;;26.70;91.00;;;;;;5029458;28;20026;-71
2023/06/22 11:26:29;;;;;;;18.42;10.55;;;26.60;91.10;;;;;;5024489;28;20064;-72
2023/06/22 11:28:54;;;;;;;13.43;10.27;;;26.60;91.30;;;;;;5019128;28;20029;-71
2023/06/22 11:31:20;;;;;;;13.30;9.02;;;26.60;91.40;;;;;;5027908;28;20516;-71
2023/06/22 11:33:47;;;;;;;14.32;10.63;;;26.60;91.40;;;;;;5023620;28;20026;-71
2023/06/22 11:36:14;;;;;;;13.02;8.40;;;26.60;91.20;;;;;;5026276;28;20014;-71
2023/06/22 11:38:40;;;;;;;12.90;6.80;;;26.60;91.00;;;;;;5031459;28;20032;-71
2023/06/22 11:41:09;;;;;;;10.32;7.57;;;26.60;90.80;;;;;;5030917;28;20026;-75
2023/06/22 11:43:36;;;;;;;12.50;7.72;;;26.60;90.40;;;;;;5028744;28;20479;-72
2023/06/22 11:46:03;;;;;;;15.68;9.85;;;26.60;90.30;;;;;;5021098;28;20046;-76
2023/06/22 11:48:29;;;;;;;14.35;10.20;;;26.50;90.50;;;;;;5031245;28;20034;-74
2023/06/22 11:50:55;;;;;;;20.13;10.05;;;26.50;90.70;;;;;;5033096;28;20053;-74
2023/06/22 11:53:25;;;;;;;17.17;11.98;;;26.40;91.20;;;;;;5032116;28;20026;-74
2023/06/22 11:55:52;;;;;;;15.90;10.95;;;26.40;91.80;;;;;;5027246;28;20022;-73
2023/06/22 11:58:18;;;;;;;17.42;11.82;;;26.40;92.20;;;;;;5031513;28;20088;-75
2023/06/22 12:00:44;;;;;;;18.65;12.48;;;26.40;92.60;;;;;;5033522;28;20018;-72
2023/06/22 12:03:11;;;;;;;21.10;14.55;;;26.40;93.20;;;;;;5021995;28;20465;-71
2023/06/22 12:05:36;;;;;;;24.70;17.10;;;26.30;93.60;;;;;;5031545;28;20045;-71
2023/06/22 12:08:02;;;;;;;24.67;17.20;;;26.30;94.30;;;;;;5034442;28;20026;-71
2023/06/22 12:10:31;;;;;;;24.15;17.42;;;26.30;94.80;;;;;;5033710;28;20533;-71
2023/06/22 12:12:59;;;;;;;20.48;15.40;;;26.30;95.30;;;;;;5027684;28;20030;-71
2023/06/22 12:15:26;;;;;;;24.67;17.60;;;26.20;95.40;;;;;;5036608;28;20026;-71
2023/06/22 12:17:52;;;;;;;23.33;16.85;;;26.10;95.40;;;;;;5026916;28;20366;-71
2023/06/22 12:20:17;;;;;;;27.92;18.40;;;26.10;95.80;;;;;;5022709;28;20032;-72
2023/06/22 12:22:43;;;;;;;24.05;17.58;;;26.00;96.00;;;;;;5021217;28;20018;-71
2023/06/22 12:25:09;;;;;;;22.05;16.67;;;26.00;96.30;;;;;;5030100;28;20018;-71
2023/06/22 12:27:35;;;;;;;26.95;18.45;;;25.90;96.60;;;;;;5026793;28;20026;-71